sensor_id;sensor_type;location;lat;lon;timestamp;P1;durP1;ratioP1;P2;durP2;ratioP2
79130;SDS011;72396;45.194;9.142;2023-11-19T00:02:07;4.70;;;3.13;;
79130;SDS011;72396;45.194;9.142;2023-11-19T00:04:33;5.82;;;3.35;;
79130;SDS011;72396;45.194;9.142;2023-11-19T00:07:02;5.05;;;3.15;;
79130;SDS011;72396;45.194;9.142;2023-11-19T00:09:29;5.53;;;3.30;;
79130;SDS011;72396;45.194;9.142;2023-11-19T00:11:55;6.13;;;3.33;;
79130;SDS011;72396;45.194;9.142;2023-11-19T00:14:20;8.15;;;3.53;;
79130;SDS011;72396;45.194;9.142;2023-11-19T00:16:46;6.43;;;3.30;;
79130;SDS011;72396;45.194;9.142;2023-11-19T00:19:11;6.03;;;3.67;;
79130;SDS011;72396;45.194;9.142;2023-11-19T00:21:36;6.35;;;3.40;;
79130;SDS011;72396;45.194;9.142;2023-11-19T00:24:02;4.88;;;3.25;;
79130;SDS011;72396;45.194;9.142;2023-11-19T00:26:27;5.85;;;3.38;;
79130;SDS011;72396;45.194;9.142;2023-11-19T00:28:53;6.45;;;3.47;;
79130;SDS011;72396;45.194;9.142;2023-11-19T00:31:18;6.70;;;3.70;;
79130;SDS011;72396;45.194;9.142;2023-11-19T00:33:43;5.93;;;3.40;;
79130;SDS011;72396;45.194;9.142;2023-11-19T00:36:09;5.05;;;3.30;;
79130;SDS011;72396;45.194;9.142;2023-11-19T00:38:34;6.03;;;3.70;;
79130;SDS011;72396;45.194;9.142;2023-11-19T00:40:59;4.88;;;3.13;;
79130;SDS011;72396;45.194;9.142;2023-11-19T00:43:25;4.88;;;3.03;;
79130;SDS011;72396;45.194;9.142;2023-11-19T00:45:51;6.32;;;3.78;;
79130;SDS011;72396;45.194;9.142;2023-11-19T00:48:16;4.55;;;3.03;;
79130;SDS011;72396;45.194;9.142;2023-11-19T00:50:42;4.93;;;3.08;;
79130;SDS011;72396;45.194;9.142;2023-11-19T00:53:10;6.18;;;3.10;;
79130;SDS011;72396;45.194;9.142;2023-11-19T00:55:35;5.50;;;2.92;;
79130;SDS011;72396;45.194;9.142;2023-11-19T00:58:01;5.22;;;3.13;;
79130;SDS011;72396;45.194;9.142;2023-11-19T01:00:26;6.70;;;3.55;;
79130;SDS011;72396;45.194;9.142;2023-11-19T01:02:52;5.25;;;3.38;;
79130;SDS011;72396;45.194;9.142;2023-11-19T01:05:18;5.45;;;3.55;;
79130;SDS011;72396;45.194;9.142;2023-11-19T01:07:46;5.85;;;3.78;;
79130;SDS011;72396;45.194;9.142;2023-11-19T01:10:12;6.20;;;3.65;;
79130;SDS011;72396;45.194;9.142;2023-11-19T01:12:37;5.07;;;3.42;;
79130;SDS011;72396;45.194;9.142;2023-11-19T01:15:03;5.03;;;3.15;;
79130;SDS011;72396;45.194;9.142;2023-11-19T01:17:30;5.60;;;3.72;;
79130;SDS011;72396;45.194;9.142;2023-11-19T01:19:56;5.25;;;3.30;;
79130;SDS011;72396;45.194;9.142;2023-11-19T01:22:22;5.20;;;3.40;;
79130;SDS011;72396;45.194;9.142;2023-11-19T01:24:48;6.57;;;3.00;;
79130;SDS011;72396;45.194;9.142;2023-11-19T01:27:13;6.10;;;3.20;;
79130;SDS011;72396;45.194;9.142;2023-11-19T01:29:39;5.72;;;3.67;;
79130;SDS011;72396;45.194;9.142;2023-11-19T01:32:04;4.75;;;3.33;;
79130;SDS011;72396;45.194;9.142;2023-11-19T01:34:30;6.05;;;3.63;;
79130;SDS011;72396;45.194;9.142;2023-11-19T01:36:55;5.65;;;3.72;;
79130;SDS011;72396;45.194;9.142;2023-11-19T01:39:21;5.25;;;3.03;;
79130;SDS011;72396;45.194;9.142;2023-11-19T01:41:46;7.20;;;3.88;;
79130;SDS011;72396;45.194;9.142;2023-11-19T01:44:12;5.18;;;3.15;;
79130;SDS011;72396;45.194;9.142;2023-11-19T01:46:37;5.97;;;3.53;;
79130;SDS011;72396;45.194;9.142;2023-11-19T01:49:05;5.93;;;3.58;;
79130;SDS011;72396;45.194;9.142;2023-11-19T01:51:31;5.97;;;3.20;;
79130;SDS011;72396;45.194;9.142;2023-11-19T01:53:56;6.30;;;3.17;;
79130;SDS011;72396;45.194;9.142;2023-11-19T01:56:23;5.43;;;3.60;;
79130;SDS011;72396;45.194;9.142;2023-11-19T01:58:50;5.43;;;3.40;;
79130;SDS011;72396;45.194;9.142;2023-11-19T02:01:17;5.13;;;3.58;;
79130;SDS011;72396;45.194;9.142;2023-11-19T02:03:42;5.60;;;3.60;;
79130;SDS011;72396;45.194;9.142;2023-11-19T02:06:08;6.57;;;3.58;;
79130;SDS011;72396;45.194;9.142;2023-11-19T02:08:35;5.13;;;3.25;;
79130;SDS011;72396;45.194;9.142;2023-11-19T02:11:00;5.35;;;3.33;;
79130;SDS011;72396;45.194;9.142;2023-11-19T02:13:27;6.75;;;3.60;;
79130;SDS011;72396;45.194;9.142;2023-11-19T02:15:53;6.60;;;3.65;;
79130;SDS011;72396;45.194;9.142;2023-11-19T02:18:23;6.07;;;3.78;;
79130;SDS011;72396;45.194;9.142;2023-11-19T02:20:52;6.72;;;3.50;;
79130;SDS011;72396;45.194;9.142;2023-11-19T02:23:21;4.95;;;3.40;;
79130;SDS011;72396;45.194;9.142;2023-11-19T02:25:52;5.25;;;3.72;;
79130;SDS011;72396;45.194;9.142;2023-11-19T02:28:39;4.72;;;3.47;;
79130;SDS011;72396;45.194;9.142;2023-11-19T02:31:05;7.90;;;3.80;;
79130;SDS011;72396;45.194;9.142;2023-11-19T02:33:34;4.80;;;3.00;;
79130;SDS011;72396;45.194;9.142;2023-11-19T02:36:00;4.78;;;3.40;;
79130;SDS011;72396;45.194;9.142;2023-11-19T02:38:26;7.22;;;3.42;;
79130;SDS011;72396;45.194;9.142;2023-11-19T02:40:51;4.85;;;3.40;;
79130;SDS011;72396;45.194;9.142;2023-11-19T02:43:17;5.88;;;4.00;;
79130;SDS011;72396;45.194;9.142;2023-11-19T02:45:43;6.70;;;4.13;;
79130;SDS011;72396;45.194;9.142;2023-11-19T02:48:10;5.57;;;3.63;;
79130;SDS011;72396;45.194;9.142;2023-11-19T02:50:36;5.95;;;3.75;;
79130;SDS011;72396;45.194;9.142;2023-11-19T02:53:02;7.15;;;4.03;;
79130;SDS011;72396;45.194;9.142;2023-11-19T02:55:27;5.55;;;3.55;;
79130;SDS011;72396;45.194;9.142;2023-11-19T02:57:55;6.43;;;3.75;;
79130;SDS011;72396;45.194;9.142;2023-11-19T03:00:24;4.90;;;3.35;;
79130;SDS011;72396;45.194;9.142;2023-11-19T03:02:53;7.35;;;3.80;;
79130;SDS011;72396;45.194;9.142;2023-11-19T03:05:24;6.60;;;4.22;;
79130;SDS011;72396;45.194;9.142;2023-11-19T03:07:51;5.68;;;3.53;;
79130;SDS011;72396;45.194;9.142;2023-11-19T03:10:17;5.25;;;3.75;;
79130;SDS011;72396;45.194;9.142;2023-11-19T03:12:43;4.72;;;3.22;;
79130;SDS011;72396;45.194;9.142;2023-11-19T03:15:10;5.65;;;3.63;;
79130;SDS011;72396;45.194;9.142;2023-11-19T03:17:38;6.20;;;3.75;;
79130;SDS011;72396;45.194;9.142;2023-11-19T03:20:07;5.80;;;4.15;;
79130;SDS011;72396;45.194;9.142;2023-11-19T03:22:38;5.93;;;3.90;;
79130;SDS011;72396;45.194;9.142;2023-11-19T03:25:04;5.93;;;3.72;;
79130;SDS011;72396;45.194;9.142;2023-11-19T03:27:29;6.40;;;3.13;;
79130;SDS011;72396;45.194;9.142;2023-11-19T03:29:55;6.28;;;3.80;;
79130;SDS011;72396;45.194;9.142;2023-11-19T03:32:20;5.10;;;3.42;;
79130;SDS011;72396;45.194;9.142;2023-11-19T03:34:45;5.32;;;3.30;;
79130;SDS011;72396;45.194;9.142;2023-11-19T03:37:11;6.03;;;3.92;;
79130;SDS011;72396;45.194;9.142;2023-11-19T03:39:36;4.72;;;2.97;;
79130;SDS011;72396;45.194;9.142;2023-11-19T03:42:02;5.85;;;3.50;;
79130;SDS011;72396;45.194;9.142;2023-11-19T03:44:28;7.05;;;3.63;;
79130;SDS011;72396;45.194;9.142;2023-11-19T03:46:53;6.70;;;3.72;;
79130;SDS011;72396;45.194;9.142;2023-11-19T03:49:19;6.03;;;3.80;;
79130;SDS011;72396;45.194;9.142;2023-11-19T03:51:44;6.03;;;3.80;;
79130;SDS011;72396;45.194;9.142;2023-11-19T03:54:09;7.00;;;3.80;;
79130;SDS011;72396;45.194;9.142;2023-11-19T03:56:36;5.88;;;3.70;;
79130;SDS011;72396;45.194;9.142;2023-11-19T03:59:02;5.53;;;3.33;;
79130;SDS011;72396;45.194;9.142;2023-11-19T04:01:27;6.50;;;3.70;;
79130;SDS011;72396;45.194;9.142;2023-11-19T04:03:53;6.45;;;3.80;;
79130;SDS011;72396;45.194;9.142;2023-11-19T04:06:18;6.30;;;3.67;;
79130;SDS011;72396;45.194;9.142;2023-11-19T04:08:44;5.13;;;3.72;;
79130;SDS011;72396;45.194;9.142;2023-11-19T04:11:09;6.53;;;4.10;;
79130;SDS011;72396;45.194;9.142;2023-11-19T04:13:35;5.63;;;3.75;;
79130;SDS011;72396;45.194;9.142;2023-11-19T04:16:00;5.28;;;3.72;;
79130;SDS011;72396;45.194;9.142;2023-11-19T04:18:26;5.60;;;3.78;;
79130;SDS011;72396;45.194;9.142;2023-11-19T04:20:52;6.82;;;3.63;;
79130;SDS011;72396;45.194;9.142;2023-11-19T04:23:17;6.95;;;3.70;;
79130;SDS011;72396;45.194;9.142;2023-11-19T04:25:42;7.82;;;4.15;;
79130;SDS011;72396;45.194;9.142;2023-11-19T04:28:08;6.10;;;3.60;;
79130;SDS011;72396;45.194;9.142;2023-11-19T04:30:33;5.68;;;3.55;;
79130;SDS011;72396;45.194;9.142;2023-11-19T04:33:00;6.10;;;3.47;;
79130;SDS011;72396;45.194;9.142;2023-11-19T04:35:25;7.95;;;3.72;;
79130;SDS011;72396;45.194;9.142;2023-11-19T04:37:51;6.00;;;3.80;;
79130;SDS011;72396;45.194;9.142;2023-11-19T04:40:16;5.70;;;3.63;;
79130;SDS011;72396;45.194;9.142;2023-11-19T04:42:43;5.93;;;3.58;;
79130;SDS011;72396;45.194;9.142;2023-11-19T04:45:09;5.45;;;3.30;;
79130;SDS011;72396;45.194;9.142;2023-11-19T04:47:35;5.63;;;3.72;;
79130;SDS011;72396;45.194;9.142;2023-11-19T04:50:01;6.25;;;3.67;;
79130;SDS011;72396;45.194;9.142;2023-11-19T04:52:27;5.70;;;3.60;;
79130;SDS011;72396;45.194;9.142;2023-11-19T04:54:52;6.53;;;4.03;;
79130;SDS011;72396;45.194;9.142;2023-11-19T04:57:18;5.72;;;3.30;;
79130;SDS011;72396;45.194;9.142;2023-11-19T04:59:43;6.60;;;3.80;;
79130;SDS011;72396;45.194;9.142;2023-11-19T05:02:08;5.43;;;3.65;;
79130;SDS011;72396;45.194;9.142;2023-11-19T05:04:34;5.68;;;3.55;;
79130;SDS011;72396;45.194;9.142;2023-11-19T05:07:00;7.05;;;3.75;;
79130;SDS011;72396;45.194;9.142;2023-11-19T05:09:25;6.53;;;4.00;;
79130;SDS011;72396;45.194;9.142;2023-11-19T05:11:51;7.32;;;3.80;;
79130;SDS011;72396;45.194;9.142;2023-11-19T05:14:16;7.40;;;3.80;;
79130;SDS011;72396;45.194;9.142;2023-11-19T05:16:43;6.35;;;3.97;;
79130;SDS011;72396;45.194;9.142;2023-11-19T05:19:09;6.00;;;3.63;;
79130;SDS011;72396;45.194;9.142;2023-11-19T05:21:34;6.10;;;3.80;;
79130;SDS011;72396;45.194;9.142;2023-11-19T05:24:01;6.95;;;4.03;;
79130;SDS011;72396;45.194;9.142;2023-11-19T05:26:29;7.68;;;3.88;;
79130;SDS011;72396;45.194;9.142;2023-11-19T05:28:55;6.45;;;4.05;;
79130;SDS011;72396;45.194;9.142;2023-11-19T05:31:20;5.38;;;3.67;;
79130;SDS011;72396;45.194;9.142;2023-11-19T05:33:46;6.03;;;4.00;;
79130;SDS011;72396;45.194;9.142;2023-11-19T05:36:11;6.40;;;4.20;;
79130;SDS011;72396;45.194;9.142;2023-11-19T05:38:40;7.10;;;4.20;;
79130;SDS011;72396;45.194;9.142;2023-11-19T05:41:05;6.95;;;4.25;;
79130;SDS011;72396;45.194;9.142;2023-11-19T05:43:31;5.63;;;3.60;;
79130;SDS011;72396;45.194;9.142;2023-11-19T05:45:57;6.03;;;3.78;;
79130;SDS011;72396;45.194;9.142;2023-11-19T05:48:22;5.88;;;3.72;;
79130;SDS011;72396;45.194;9.142;2023-11-19T05:50:48;5.43;;;3.60;;
79130;SDS011;72396;45.194;9.142;2023-11-19T05:53:15;7.68;;;4.03;;
79130;SDS011;72396;45.194;9.142;2023-11-19T05:55:41;5.72;;;3.65;;
79130;SDS011;72396;45.194;9.142;2023-11-19T05:58:29;6.32;;;4.10;;
79130;SDS011;72396;45.194;9.142;2023-11-19T06:00:58;7.00;;;4.25;;
79130;SDS011;72396;45.194;9.142;2023-11-19T06:03:25;7.18;;;4.07;;
79130;SDS011;72396;45.194;9.142;2023-11-19T06:05:51;5.28;;;3.88;;
79130;SDS011;72396;45.194;9.142;2023-11-19T06:08:17;5.65;;;3.95;;
79130;SDS011;72396;45.194;9.142;2023-11-19T06:10:43;5.78;;;3.83;;
79130;SDS011;72396;45.194;9.142;2023-11-19T06:13:11;7.22;;;4.25;;
79130;SDS011;72396;45.194;9.142;2023-11-19T06:15:37;6.00;;;4.55;;
79130;SDS011;72396;45.194;9.142;2023-11-19T06:18:02;6.95;;;4.25;;
79130;SDS011;72396;45.194;9.142;2023-11-19T06:20:29;7.13;;;4.43;;
79130;SDS011;72396;45.194;9.142;2023-11-19T06:22:55;9.05;;;5.15;;
79130;SDS011;72396;45.194;9.142;2023-11-19T06:25:21;8.60;;;5.15;;
79130;SDS011;72396;45.194;9.142;2023-11-19T06:27:48;8.48;;;5.22;;
79130;SDS011;72396;45.194;9.142;2023-11-19T06:30:14;8.25;;;5.20;;
79130;SDS011;72396;45.194;9.142;2023-11-19T06:32:39;8.23;;;5.72;;
79130;SDS011;72396;45.194;9.142;2023-11-19T06:35:05;7.30;;;4.97;;
79130;SDS011;72396;45.194;9.142;2023-11-19T06:37:30;10.35;;;5.95;;
79130;SDS011;72396;45.194;9.142;2023-11-19T06:39:56;6.93;;;4.80;;
79130;SDS011;72396;45.194;9.142;2023-11-19T06:42:21;8.00;;;5.45;;
79130;SDS011;72396;45.194;9.142;2023-11-19T06:44:46;9.27;;;5.60;;
79130;SDS011;72396;45.194;9.142;2023-11-19T06:47:12;7.97;;;5.57;;
79130;SDS011;72396;45.194;9.142;2023-11-19T06:49:37;9.27;;;5.38;;
79130;SDS011;72396;45.194;9.142;2023-11-19T06:52:02;8.48;;;5.45;;
79130;SDS011;72396;45.194;9.142;2023-11-19T06:54:29;7.88;;;5.38;;
79130;SDS011;72396;45.194;9.142;2023-11-19T06:56:54;8.38;;;6.05;;
79130;SDS011;72396;45.194;9.142;2023-11-19T06:59:20;8.52;;;5.70;;
79130;SDS011;72396;45.194;9.142;2023-11-19T07:01:46;6.80;;;4.47;;
79130;SDS011;72396;45.194;9.142;2023-11-19T07:04:11;8.60;;;4.82;;
79130;SDS011;72396;45.194;9.142;2023-11-19T07:06:37;8.23;;;5.80;;
79130;SDS011;72396;45.194;9.142;2023-11-19T07:09:04;7.43;;;4.78;;
79130;SDS011;72396;45.194;9.142;2023-11-19T07:11:38;8.93;;;5.10;;
79130;SDS011;72396;45.194;9.142;2023-11-19T07:14:04;7.32;;;5.35;;
79130;SDS011;72396;45.194;9.142;2023-11-19T07:16:31;7.25;;;5.20;;
79130;SDS011;72396;45.194;9.142;2023-11-19T07:18:57;10.70;;;6.93;;
79130;SDS011;72396;45.194;9.142;2023-11-19T07:21:23;7.30;;;5.63;;
79130;SDS011;72396;45.194;9.142;2023-11-19T07:23:49;6.85;;;4.90;;
79130;SDS011;72396;45.194;9.142;2023-11-19T07:26:15;9.07;;;4.68;;
79130;SDS011;72396;45.194;9.142;2023-11-19T07:28:40;6.43;;;5.00;;
79130;SDS011;72396;45.194;9.142;2023-11-19T07:31:05;8.10;;;5.15;;
79130;SDS011;72396;45.194;9.142;2023-11-19T07:33:33;10.35;;;5.78;;
79130;SDS011;72396;45.194;9.142;2023-11-19T07:35:58;11.63;;;6.55;;
79130;SDS011;72396;45.194;9.142;2023-11-19T07:38:24;14.82;;;7.40;;
79130;SDS011;72396;45.194;9.142;2023-11-19T07:40:49;16.75;;;7.68;;
79130;SDS011;72396;45.194;9.142;2023-11-19T07:43:14;10.95;;;6.50;;
79130;SDS011;72396;45.194;9.142;2023-11-19T07:45:40;13.88;;;6.72;;
79130;SDS011;72396;45.194;9.142;2023-11-19T07:48:08;12.52;;;7.55;;
79130;SDS011;72396;45.194;9.142;2023-11-19T07:50:34;13.60;;;6.78;;
79130;SDS011;72396;45.194;9.142;2023-11-19T07:52:59;12.18;;;6.55;;
79130;SDS011;72396;45.194;9.142;2023-11-19T07:55:25;12.50;;;6.90;;
79130;SDS011;72396;45.194;9.142;2023-11-19T07:57:50;10.40;;;5.93;;
79130;SDS011;72396;45.194;9.142;2023-11-19T08:00:16;12.70;;;5.75;;
79130;SDS011;72396;45.194;9.142;2023-11-19T08:02:42;11.85;;;6.35;;
79130;SDS011;72396;45.194;9.142;2023-11-19T08:05:07;13.70;;;6.10;;
79130;SDS011;72396;45.194;9.142;2023-11-19T08:07:32;17.13;;;5.40;;
79130;SDS011;72396;45.194;9.142;2023-11-19T08:09:58;9.32;;;5.80;;
79130;SDS011;72396;45.194;9.142;2023-11-19T08:12:23;10.75;;;5.85;;
79130;SDS011;72396;45.194;9.142;2023-11-19T08:14:48;10.38;;;5.63;;
79130;SDS011;72396;45.194;9.142;2023-11-19T08:17:14;11.80;;;6.45;;
79130;SDS011;72396;45.194;9.142;2023-11-19T08:19:41;12.70;;;6.38;;
79130;SDS011;72396;45.194;9.142;2023-11-19T08:22:06;8.32;;;5.40;;
79130;SDS011;72396;45.194;9.142;2023-11-19T08:24:31;9.30;;;5.38;;
79130;SDS011;72396;45.194;9.142;2023-11-19T08:26:57;9.55;;;5.75;;
79130;SDS011;72396;45.194;9.142;2023-11-19T08:29:22;15.07;;;5.95;;
79130;SDS011;72396;45.194;9.142;2023-11-19T08:31:48;9.30;;;5.30;;
79130;SDS011;72396;45.194;9.142;2023-11-19T08:34:13;6.45;;;4.13;;
79130;SDS011;72396;45.194;9.142;2023-11-19T08:36:38;7.72;;;4.50;;
79130;SDS011;72396;45.194;9.142;2023-11-19T08:39:04;8.90;;;5.13;;
79130;SDS011;72396;45.194;9.142;2023-11-19T08:41:29;8.27;;;5.38;;
79130;SDS011;72396;45.194;9.142;2023-11-19T08:43:55;7.93;;;5.07;;
79130;SDS011;72396;45.194;9.142;2023-11-19T08:46:20;9.43;;;5.25;;
79130;SDS011;72396;45.194;9.142;2023-11-19T08:48:45;7.95;;;4.55;;
79130;SDS011;72396;45.194;9.142;2023-11-19T08:51:11;8.65;;;4.70;;
79130;SDS011;72396;45.194;9.142;2023-11-19T08:53:37;9.38;;;6.38;;
79130;SDS011;72396;45.194;9.142;2023-11-19T08:56:03;8.20;;;5.28;;
79130;SDS011;72396;45.194;9.142;2023-11-19T08:58:28;9.75;;;5.20;;
79130;SDS011;72396;45.194;9.142;2023-11-19T09:00:54;11.50;;;5.10;;
79130;SDS011;72396;45.194;9.142;2023-11-19T09:03:19;8.10;;;4.70;;
79130;SDS011;72396;45.194;9.142;2023-11-19T09:05:45;6.95;;;4.28;;
79130;SDS011;72396;45.194;9.142;2023-11-19T09:08:11;9.02;;;5.28;;
79130;SDS011;72396;45.194;9.142;2023-11-19T09:10:37;8.77;;;4.93;;
79130;SDS011;72396;45.194;9.142;2023-11-19T09:13:02;9.52;;;5.35;;
79130;SDS011;72396;45.194;9.142;2023-11-19T09:15:28;11.25;;;4.50;;
79130;SDS011;72396;45.194;9.142;2023-11-19T09:17:54;7.35;;;4.78;;
79130;SDS011;72396;45.194;9.142;2023-11-19T09:20:19;8.07;;;4.53;;
79130;SDS011;72396;45.194;9.142;2023-11-19T09:22:45;6.38;;;4.68;;
79130;SDS011;72396;45.194;9.142;2023-11-19T09:25:11;7.70;;;5.13;;
79130;SDS011;72396;45.194;9.142;2023-11-19T09:27:36;8.20;;;4.93;;
79130;SDS011;72396;45.194;9.142;2023-11-19T09:30:01;8.43;;;5.18;;
79130;SDS011;72396;45.194;9.142;2023-11-19T09:32:28;8.55;;;6.03;;
79130;SDS011;72396;45.194;9.142;2023-11-19T09:34:54;10.82;;;5.22;;
79130;SDS011;72396;45.194;9.142;2023-11-19T09:37:19;9.75;;;4.82;;
79130;SDS011;72396;45.194;9.142;2023-11-19T09:39:44;6.45;;;4.07;;
79130;SDS011;72396;45.194;9.142;2023-11-19T09:42:10;7.50;;;4.90;;
79130;SDS011;72396;45.194;9.142;2023-11-19T09:44:36;9.23;;;5.03;;
79130;SDS011;72396;45.194;9.142;2023-11-19T09:47:03;7.45;;;5.05;;
79130;SDS011;72396;45.194;9.142;2023-11-19T09:49:30;9.00;;;5.35;;
79130;SDS011;72396;45.194;9.142;2023-11-19T09:51:55;9.90;;;7.30;;
79130;SDS011;72396;45.194;9.142;2023-11-19T09:54:21;7.75;;;4.90;;
79130;SDS011;72396;45.194;9.142;2023-11-19T09:56:46;7.40;;;4.78;;
79130;SDS011;72396;45.194;9.142;2023-11-19T09:59:13;7.75;;;5.07;;
79130;SDS011;72396;45.194;9.142;2023-11-19T10:01:38;7.85;;;5.18;;
79130;SDS011;72396;45.194;9.142;2023-11-19T10:04:05;9.35;;;5.10;;
79130;SDS011;72396;45.194;9.142;2023-11-19T10:06:31;6.85;;;4.75;;
79130;SDS011;72396;45.194;9.142;2023-11-19T10:08:56;9.00;;;4.90;;
79130;SDS011;72396;45.194;9.142;2023-11-19T10:11:22;7.70;;;4.90;;
79130;SDS011;72396;45.194;9.142;2023-11-19T10:13:47;7.32;;;4.78;;
79130;SDS011;72396;45.194;9.142;2023-11-19T10:16:14;10.10;;;4.75;;
79130;SDS011;72396;45.194;9.142;2023-11-19T10:18:46;7.18;;;4.80;;
79130;SDS011;72396;45.194;9.142;2023-11-19T10:21:18;8.30;;;5.18;;
79130;SDS011;72396;45.194;9.142;2023-11-19T10:23:51;7.15;;;4.43;;
79130;SDS011;72396;45.194;9.142;2023-11-19T10:26:22;8.43;;;4.88;;
79130;SDS011;72396;45.194;9.142;2023-11-19T10:28:48;9.63;;;5.90;;
79130;SDS011;72396;45.194;9.142;2023-11-19T10:31:14;9.73;;;4.93;;
79130;SDS011;72396;45.194;9.142;2023-11-19T10:33:40;8.40;;;5.15;;
79130;SDS011;72396;45.194;9.142;2023-11-19T10:36:07;9.55;;;5.28;;
79130;SDS011;72396;45.194;9.142;2023-11-19T10:38:33;9.20;;;5.32;;
79130;SDS011;72396;45.194;9.142;2023-11-19T10:40:58;8.68;;;5.45;;
79130;SDS011;72396;45.194;9.142;2023-11-19T10:43:24;6.78;;;4.53;;
79130;SDS011;72396;45.194;9.142;2023-11-19T10:45:50;8.45;;;5.72;;
79130;SDS011;72396;45.194;9.142;2023-11-19T10:48:15;7.22;;;5.13;;
79130;SDS011;72396;45.194;9.142;2023-11-19T10:50:41;9.43;;;4.95;;
79130;SDS011;72396;45.194;9.142;2023-11-19T10:53:09;8.55;;;5.00;;
79130;SDS011;72396;45.194;9.142;2023-11-19T10:55:36;7.93;;;5.07;;
79130;SDS011;72396;45.194;9.142;2023-11-19T10:58:04;8.20;;;4.90;;
79130;SDS011;72396;45.194;9.142;2023-11-19T11:00:37;8.73;;;5.72;;
79130;SDS011;72396;45.194;9.142;2023-11-19T11:03:08;7.95;;;5.03;;
79130;SDS011;72396;45.194;9.142;2023-11-19T11:05:36;7.97;;;5.30;;
79130;SDS011;72396;45.194;9.142;2023-11-19T11:08:03;8.98;;;5.50;;
79130;SDS011;72396;45.194;9.142;2023-11-19T11:10:31;7.35;;;4.93;;
79130;SDS011;72396;45.194;9.142;2023-11-19T11:13:02;8.35;;;5.32;;
79130;SDS011;72396;45.194;9.142;2023-11-19T11:15:28;9.90;;;5.40;;
79130;SDS011;72396;45.194;9.142;2023-11-19T11:17:57;9.80;;;6.90;;
79130;SDS011;72396;45.194;9.142;2023-11-19T11:20:26;11.68;;;5.55;;
79130;SDS011;72396;45.194;9.142;2023-11-19T11:28:56;10.38;;;5.45;;
79130;SDS011;72396;45.194;9.142;2023-11-19T11:39:36;20.92;;;9.93;;
79130;SDS011;72396;45.194;9.142;2023-11-19T11:42:49;13.95;;;7.00;;
79130;SDS011;72396;45.194;9.142;2023-11-19T11:58:08;11.13;;;5.85;;
79130;SDS011;72396;45.194;9.142;2023-11-19T12:00:37;12.00;;;7.45;;
79130;SDS011;72396;45.194;9.142;2023-11-19T12:05:30;19.42;;;6.80;;
79130;SDS011;72396;45.194;9.142;2023-11-19T12:07:58;11.02;;;5.90;;
79130;SDS011;72396;45.194;9.142;2023-11-19T12:10:28;13.55;;;5.57;;
79130;SDS011;72396;45.194;9.142;2023-11-19T12:12:59;9.73;;;5.35;;
79130;SDS011;72396;45.194;9.142;2023-11-19T12:15:32;12.05;;;6.05;;
79130;SDS011;72396;45.194;9.142;2023-11-19T12:17:58;9.32;;;5.85;;
79130;SDS011;72396;45.194;9.142;2023-11-19T12:20:24;11.93;;;5.80;;
79130;SDS011;72396;45.194;9.142;2023-11-19T12:22:51;7.20;;;3.95;;
79130;SDS011;72396;45.194;9.142;2023-11-19T12:25:18;13.30;;;5.82;;
79130;SDS011;72396;45.194;9.142;2023-11-19T12:27:49;11.02;;;6.00;;
79130;SDS011;72396;45.194;9.142;2023-11-19T12:30:22;12.48;;;5.40;;
79130;SDS011;72396;45.194;9.142;2023-11-19T12:32:49;14.18;;;6.65;;
79130;SDS011;72396;45.194;9.142;2023-11-19T12:35:15;17.70;;;7.03;;
79130;SDS011;72396;45.194;9.142;2023-11-19T12:37:47;15.95;;;7.93;;
79130;SDS011;72396;45.194;9.142;2023-11-19T12:40:17;14.50;;;7.00;;
79130;SDS011;72396;45.194;9.142;2023-11-19T12:42:44;12.30;;;6.30;;
79130;SDS011;72396;45.194;9.142;2023-11-19T12:45:19;14.18;;;6.38;;
79130;SDS011;72396;45.194;9.142;2023-11-19T12:47:46;13.02;;;6.85;;
79130;SDS011;72396;45.194;9.142;2023-11-19T12:50:13;12.85;;;6.35;;
79130;SDS011;72396;45.194;9.142;2023-11-19T12:52:39;11.30;;;5.90;;
79130;SDS011;72396;45.194;9.142;2023-11-19T12:55:05;9.75;;;6.00;;
79130;SDS011;72396;45.194;9.142;2023-11-19T12:57:50;10.48;;;5.60;;
79130;SDS011;72396;45.194;9.142;2023-11-19T13:00:19;9.57;;;6.00;;
79130;SDS011;72396;45.194;9.142;2023-11-19T13:02:49;11.50;;;6.35;;
79130;SDS011;72396;45.194;9.142;2023-11-19T13:05:29;11.43;;;5.70;;
79130;SDS011;72396;45.194;9.142;2023-11-19T13:10:29;9.48;;;5.00;;
79130;SDS011;72396;45.194;9.142;2023-11-19T13:12:59;10.20;;;5.88;;
79130;SDS011;72396;45.194;9.142;2023-11-19T13:17:59;12.23;;;4.93;;
79130;SDS011;72396;45.194;9.142;2023-11-19T13:20:24;10.25;;;5.38;;
79130;SDS011;72396;45.194;9.142;2023-11-19T13:22:53;11.27;;;4.90;;
79130;SDS011;72396;45.194;9.142;2023-11-19T13:25:37;11.77;;;6.22;;
79130;SDS011;72396;45.194;9.142;2023-11-19T13:28:02;11.00;;;6.70;;
79130;SDS011;72396;45.194;9.142;2023-11-19T13:30:27;10.68;;;5.20;;
79130;SDS011;72396;45.194;9.142;2023-11-19T13:32:54;8.05;;;4.82;;
79130;SDS011;72396;45.194;9.142;2023-11-19T13:35:20;9.63;;;5.43;;
79130;SDS011;72396;45.194;9.142;2023-11-19T13:37:47;10.98;;;5.15;;
79130;SDS011;72396;45.194;9.142;2023-11-19T13:40:13;11.10;;;5.70;;
79130;SDS011;72396;45.194;9.142;2023-11-19T13:42:42;8.65;;;4.65;;
79130;SDS011;72396;45.194;9.142;2023-11-19T13:45:08;15.10;;;5.78;;
79130;SDS011;72396;45.194;9.142;2023-11-19T13:47:41;11.93;;;5.47;;
79130;SDS011;72396;45.194;9.142;2023-11-19T13:50:09;9.68;;;5.43;;
79130;SDS011;72396;45.194;9.142;2023-11-19T13:52:36;10.18;;;5.30;;
79130;SDS011;72396;45.194;9.142;2023-11-19T13:55:04;13.77;;;5.75;;
79130;SDS011;72396;45.194;9.142;2023-11-19T13:57:31;9.88;;;5.15;;
79130;SDS011;72396;45.194;9.142;2023-11-19T13:59:56;8.82;;;4.82;;
79130;SDS011;72396;45.194;9.142;2023-11-19T14:02:22;7.30;;;4.78;;
79130;SDS011;72396;45.194;9.142;2023-11-19T14:04:47;9.32;;;5.03;;
79130;SDS011;72396;45.194;9.142;2023-11-19T14:07:13;9.27;;;4.88;;
79130;SDS011;72396;45.194;9.142;2023-11-19T14:09:38;11.20;;;5.32;;
79130;SDS011;72396;45.194;9.142;2023-11-19T14:12:03;9.77;;;5.55;;
79130;SDS011;72396;45.194;9.142;2023-11-19T14:14:29;10.23;;;5.05;;
79130;SDS011;72396;45.194;9.142;2023-11-19T14:16:54;7.47;;;5.05;;
79130;SDS011;72396;45.194;9.142;2023-11-19T14:19:19;9.32;;;4.75;;
79130;SDS011;72396;45.194;9.142;2023-11-19T14:21:45;13.00;;;5.75;;
79130;SDS011;72396;45.194;9.142;2023-11-19T14:24:10;15.02;;;4.90;;
79130;SDS011;72396;45.194;9.142;2023-11-19T14:26:36;11.30;;;5.30;;
79130;SDS011;72396;45.194;9.142;2023-11-19T14:29:01;9.32;;;4.43;;
79130;SDS011;72396;45.194;9.142;2023-11-19T14:31:29;12.45;;;5.47;;
79130;SDS011;72396;45.194;9.142;2023-11-19T14:33:55;8.75;;;4.70;;
79130;SDS011;72396;45.194;9.142;2023-11-19T14:36:20;9.45;;;5.15;;
79130;SDS011;72396;45.194;9.142;2023-11-19T14:38:45;9.63;;;4.72;;
79130;SDS011;72396;45.194;9.142;2023-11-19T14:41:11;9.05;;;4.82;;
79130;SDS011;72396;45.194;9.142;2023-11-19T14:43:36;9.23;;;4.82;;
79130;SDS011;72396;45.194;9.142;2023-11-19T14:46:01;8.45;;;4.53;;
79130;SDS011;72396;45.194;9.142;2023-11-19T14:48:28;6.53;;;3.90;;
79130;SDS011;72396;45.194;9.142;2023-11-19T14:50:53;9.40;;;4.57;;
79130;SDS011;72396;45.194;9.142;2023-11-19T14:53:19;8.73;;;4.88;;
79130;SDS011;72396;45.194;9.142;2023-11-19T14:55:45;11.35;;;4.75;;
79130;SDS011;72396;45.194;9.142;2023-11-19T14:58:10;11.07;;;4.82;;
79130;SDS011;72396;45.194;9.142;2023-11-19T15:00:35;8.73;;;4.25;;
79130;SDS011;72396;45.194;9.142;2023-11-19T15:03:01;8.23;;;4.38;;
79130;SDS011;72396;45.194;9.142;2023-11-19T15:05:26;7.22;;;4.10;;
79130;SDS011;72396;45.194;9.142;2023-11-19T15:07:54;7.38;;;4.03;;
79130;SDS011;72396;45.194;9.142;2023-11-19T15:10:20;8.32;;;4.25;;
79130;SDS011;72396;45.194;9.142;2023-11-19T15:12:46;13.65;;;4.40;;
79130;SDS011;72396;45.194;9.142;2023-11-19T15:15:11;7.65;;;3.95;;
79130;SDS011;72396;45.194;9.142;2023-11-19T15:17:39;7.95;;;4.20;;